sensor_id;sensor_type;location;lat;lon;timestamp;P1;durP1;ratioP1;P2;durP2;ratioP2
33357;SDS011;19717;42.614;23.418;2023-08-20T00:01:06;1.00;;;1.00;;
33357;SDS011;19717;42.614;23.418;2023-08-20T00:03:33;1.20;;;1.10;;
33357;SDS011;19717;42.614;23.418;2023-08-20T00:05:59;1.00;;;1.00;;
33357;SDS011;19717;42.614;23.418;2023-08-20T00:08:25;0.82;;;0.82;;
33357;SDS011;19717;42.614;23.418;2023-08-20T00:10:51;1.08;;;1.00;;
33357;SDS011;19717;42.614;23.418;2023-08-20T00:13:17;1.38;;;1.00;;
33357;SDS011;19717;42.614;23.418;2023-08-20T00:15:43;1.00;;;1.00;;
33357;SDS011;19717;42.614;23.418;2023-08-20T00:18:09;1.10;;;1.10;;
33357;SDS011;19717;42.614;23.418;2023-08-20T00:20:35;1.00;;;1.00;;
33357;SDS011;19717;42.614;23.418;2023-08-20T00:23:01;1.00;;;1.00;;
33357;SDS011;19717;42.614;23.418;2023-08-20T00:25:28;1.10;;;1.10;;
33357;SDS011;19717;42.614;23.418;2023-08-20T00:27:54;1.05;;;1.05;;
33357;SDS011;19717;42.614;23.418;2023-08-20T00:30:20;1.23;;;1.23;;
33357;SDS011;19717;42.614;23.418;2023-08-20T00:32:46;1.00;;;1.00;;
33357;SDS011;19717;42.614;23.418;2023-08-20T00:35:12;2.08;;;1.10;;
33357;SDS011;19717;42.614;23.418;2023-08-20T00:37:38;1.13;;;1.10;;
33357;SDS011;19717;42.614;23.418;2023-08-20T00:40:04;1.80;;;1.20;;
33357;SDS011;19717;42.614;23.418;2023-08-20T00:42:30;1.00;;;1.00;;
33357;SDS011;19717;42.614;23.418;2023-08-20T00:44:56;1.20;;;1.20;;
33357;SDS011;19717;42.614;23.418;2023-08-20T00:47:22;1.30;;;1.20;;
33357;SDS011;19717;42.614;23.418;2023-08-20T00:49:48;1.25;;;1.10;;
33357;SDS011;19717;42.614;23.418;2023-08-20T00:52:15;1.30;;;1.20;;
33357;SDS011;19717;42.614;23.418;2023-08-20T00:54:44;1.30;;;1.20;;
33357;SDS011;19717;42.614;23.418;2023-08-20T00:57:13;1.00;;;1.00;;
33357;SDS011;19717;42.614;23.418;2023-08-20T00:59:40;2.17;;;1.10;;
33357;SDS011;19717;42.614;23.418;2023-08-20T01:02:06;2.60;;;1.30;;
33357;SDS011;19717;42.614;23.418;2023-08-20T01:04:32;4.22;;;1.10;;
33357;SDS011;19717;42.614;23.418;2023-08-20T01:07:17;1.20;;;1.20;;
33357;SDS011;19717;42.614;23.418;2023-08-20T01:09:50;1.25;;;1.15;;
33357;SDS011;19717;42.614;23.418;2023-08-20T01:12:19;1.02;;;1.00;;
33357;SDS011;19717;42.614;23.418;2023-08-20T01:14:45;1.10;;;1.10;;
33357;SDS011;19717;42.614;23.418;2023-08-20T01:17:11;1.15;;;1.10;;
33357;SDS011;19717;42.614;23.418;2023-08-20T01:19:37;1.40;;;1.30;;
33357;SDS011;19717;42.614;23.418;2023-08-20T01:29:40;1.20;;;1.10;;
33357;SDS011;19717;42.614;23.418;2023-08-20T01:32:06;1.08;;;1.08;;
33357;SDS011;19717;42.614;23.418;2023-08-20T01:34:33;1.10;;;1.10;;
33357;SDS011;19717;42.614;23.418;2023-08-20T01:36:59;1.23;;;1.17;;
33357;SDS011;19717;42.614;23.418;2023-08-20T01:39:25;1.33;;;1.20;;
33357;SDS011;19717;42.614;23.418;2023-08-20T01:41:51;1.40;;;1.30;;
33357;SDS011;19717;42.614;23.418;2023-08-20T01:44:17;1.40;;;1.30;;
33357;SDS011;19717;42.614;23.418;2023-08-20T01:46:43;1.40;;;1.30;;
33357;SDS011;19717;42.614;23.418;2023-08-20T01:49:09;1.60;;;1.50;;
33357;SDS011;19717;42.614;23.418;2023-08-20T01:51:35;1.40;;;1.40;;
33357;SDS011;19717;42.614;23.418;2023-08-20T01:54:01;1.10;;;1.10;;
33357;SDS011;19717;42.614;23.418;2023-08-20T01:56:27;1.40;;;1.30;;
33357;SDS011;19717;42.614;23.418;2023-08-20T01:58:54;1.45;;;1.35;;
33357;SDS011;19717;42.614;23.418;2023-08-20T02:01:19;1.30;;;1.25;;
33357;SDS011;19717;42.614;23.418;2023-08-20T02:03:45;1.25;;;1.25;;
33357;SDS011;19717;42.614;23.418;2023-08-20T02:06:11;1.10;;;1.10;;
33357;SDS011;19717;42.614;23.418;2023-08-20T02:08:37;1.20;;;1.20;;
33357;SDS011;19717;42.614;23.418;2023-08-20T02:11:04;2.65;;;1.40;;
33357;SDS011;19717;42.614;23.418;2023-08-20T02:13:30;1.23;;;1.20;;
33357;SDS011;19717;42.614;23.418;2023-08-20T02:16:00;1.25;;;1.20;;
33357;SDS011;19717;42.614;23.418;2023-08-20T02:18:26;1.30;;;1.30;;
33357;SDS011;19717;42.614;23.418;2023-08-20T02:20:52;1.50;;;1.40;;
33357;SDS011;19717;42.614;23.418;2023-08-20T02:23:18;1.40;;;1.30;;
33357;SDS011;19717;42.614;23.418;2023-08-20T02:25:44;1.30;;;1.30;;
33357;SDS011;19717;42.614;23.418;2023-08-20T02:28:10;1.42;;;1.38;;
33357;SDS011;19717;42.614;23.418;2023-08-20T02:30:43;1.40;;;1.30;;
33357;SDS011;19717;42.614;23.418;2023-08-20T02:33:10;1.25;;;1.23;;
33357;SDS011;19717;42.614;23.418;2023-08-20T02:35:36;1.30;;;1.30;;
33357;SDS011;19717;42.614;23.418;2023-08-20T02:38:02;1.38;;;1.38;;
33357;SDS011;19717;42.614;23.418;2023-08-20T02:40:28;1.27;;;1.27;;
33357;SDS011;19717;42.614;23.418;2023-08-20T02:42:54;1.52;;;1.42;;
33357;SDS011;19717;42.614;23.418;2023-08-20T02:45:20;1.50;;;1.40;;
33357;SDS011;19717;42.614;23.418;2023-08-20T02:47:46;2.53;;;1.60;;
33357;SDS011;19717;42.614;23.418;2023-08-20T02:50:12;2.42;;;1.30;;
33357;SDS011;19717;42.614;23.418;2023-08-20T02:52:38;2.08;;;1.40;;
33357;SDS011;19717;42.614;23.418;2023-08-20T02:55:04;1.40;;;1.30;;
33357;SDS011;19717;42.614;23.418;2023-08-20T02:57:30;1.50;;;1.40;;
33357;SDS011;19717;42.614;23.418;2023-08-20T02:59:56;1.33;;;1.30;;
33357;SDS011;19717;42.614;23.418;2023-08-20T03:02:22;1.23;;;1.23;;
33357;SDS011;19717;42.614;23.418;2023-08-20T03:04:48;1.98;;;1.30;;
33357;SDS011;19717;42.614;23.418;2023-08-20T03:07:14;1.38;;;1.30;;
33357;SDS011;19717;42.614;23.418;2023-08-20T03:09:40;1.50;;;1.40;;
33357;SDS011;19717;42.614;23.418;2023-08-20T03:12:07;1.25;;;1.25;;
33357;SDS011;19717;42.614;23.418;2023-08-20T03:14:33;1.20;;;1.20;;
33357;SDS011;19717;42.614;23.418;2023-08-20T03:16:59;1.40;;;1.40;;
33357;SDS011;19717;42.614;23.418;2023-08-20T03:19:25;1.45;;;1.38;;
33357;SDS011;19717;42.614;23.418;2023-08-20T03:21:51;1.20;;;1.20;;
33357;SDS011;19717;42.614;23.418;2023-08-20T03:24:16;1.30;;;1.30;;
33357;SDS011;19717;42.614;23.418;2023-08-20T03:26:42;2.10;;;1.40;;
33357;SDS011;19717;42.614;23.418;2023-08-20T03:29:11;1.38;;;1.30;;
33357;SDS011;19717;42.614;23.418;2023-08-20T03:31:37;1.30;;;1.30;;
33357;SDS011;19717;42.614;23.418;2023-08-20T03:34:03;1.38;;;1.30;;
33357;SDS011;19717;42.614;23.418;2023-08-20T03:36:29;1.58;;;1.48;;
33357;SDS011;19717;42.614;23.418;2023-08-20T03:38:55;1.65;;;1.15;;
33357;SDS011;19717;42.614;23.418;2023-08-20T03:41:21;1.63;;;1.30;;
33357;SDS011;19717;42.614;23.418;2023-08-20T03:43:47;1.45;;;1.35;;
33357;SDS011;19717;42.614;23.418;2023-08-20T03:46:13;1.25;;;1.20;;
33357;SDS011;19717;42.614;23.418;2023-08-20T03:48:39;1.50;;;1.40;;
33357;SDS011;19717;42.614;23.418;2023-08-20T03:51:05;1.50;;;1.40;;
33357;SDS011;19717;42.614;23.418;2023-08-20T03:53:31;1.27;;;1.23;;
33357;SDS011;19717;42.614;23.418;2023-08-20T03:55:57;2.65;;;1.33;;
33357;SDS011;19717;42.614;23.418;2023-08-20T03:58:23;2.30;;;1.42;;
33357;SDS011;19717;42.614;23.418;2023-08-20T04:00:49;1.55;;;1.38;;
33357;SDS011;19717;42.614;23.418;2023-08-20T04:03:15;1.40;;;1.30;;
33357;SDS011;19717;42.614;23.418;2023-08-20T04:05:44;1.35;;;1.30;;
33357;SDS011;19717;42.614;23.418;2023-08-20T04:08:10;1.35;;;1.25;;
33357;SDS011;19717;42.614;23.418;2023-08-20T04:10:42;1.45;;;1.35;;
33357;SDS011;19717;42.614;23.418;2023-08-20T04:13:09;1.40;;;1.30;;
33357;SDS011;19717;42.614;23.418;2023-08-20T04:15:35;1.48;;;1.38;;
33357;SDS011;19717;42.614;23.418;2023-08-20T04:18:01;1.45;;;1.35;;
33357;SDS011;19717;42.614;23.418;2023-08-20T04:20:27;1.30;;;1.30;;
33357;SDS011;19717;42.614;23.418;2023-08-20T04:22:53;4.88;;;1.58;;
33357;SDS011;19717;42.614;23.418;2023-08-20T04:25:19;1.27;;;1.17;;
33357;SDS011;19717;42.614;23.418;2023-08-20T04:27:45;1.40;;;1.40;;
33357;SDS011;19717;42.614;23.418;2023-08-20T04:30:11;1.95;;;1.42;;
33357;SDS011;19717;42.614;23.418;2023-08-20T04:32:37;1.17;;;1.13;;
33357;SDS011;19717;42.614;23.418;2023-08-20T04:35:03;1.52;;;1.42;;
33357;SDS011;19717;42.614;23.418;2023-08-20T04:37:29;1.30;;;1.30;;
33357;SDS011;19717;42.614;23.418;2023-08-20T04:39:55;1.42;;;1.33;;
33357;SDS011;19717;42.614;23.418;2023-08-20T04:42:21;1.73;;;1.38;;
33357;SDS011;19717;42.614;23.418;2023-08-20T04:44:47;1.17;;;1.17;;
33357;SDS011;19717;42.614;23.418;2023-08-20T04:47:13;1.40;;;1.30;;
33357;SDS011;19717;42.614;23.418;2023-08-20T04:49:39;1.23;;;1.15;;
33357;SDS011;19717;42.614;23.418;2023-08-20T04:52:05;1.33;;;1.27;;
33357;SDS011;19717;42.614;23.418;2023-08-20T04:54:31;1.20;;;1.20;;
33357;SDS011;19717;42.614;23.418;2023-08-20T04:56:57;1.48;;;1.38;;
33357;SDS011;19717;42.614;23.418;2023-08-20T04:59:23;1.20;;;1.20;;
33357;SDS011;19717;42.614;23.418;2023-08-20T05:01:50;1.58;;;1.48;;
33357;SDS011;19717;42.614;23.418;2023-08-20T05:04:16;1.08;;;1.08;;
33357;SDS011;19717;42.614;23.418;2023-08-20T05:06:42;1.45;;;1.20;;
33357;SDS011;19717;42.614;23.418;2023-08-20T05:09:08;1.23;;;1.20;;
33357;SDS011;19717;42.614;23.418;2023-08-20T05:11:34;1.50;;;1.40;;
33357;SDS011;19717;42.614;23.418;2023-08-20T05:14:00;1.30;;;1.20;;
33357;SDS011;19717;42.614;23.418;2023-08-20T05:16:26;1.40;;;1.30;;
33357;SDS011;19717;42.614;23.418;2023-08-20T05:18:52;1.60;;;1.50;;
33357;SDS011;19717;42.614;23.418;2023-08-20T05:21:18;1.60;;;1.50;;
33357;SDS011;19717;42.614;23.418;2023-08-20T05:23:44;1.67;;;1.27;;
33357;SDS011;19717;42.614;23.418;2023-08-20T05:26:10;3.10;;;1.45;;
33357;SDS011;19717;42.614;23.418;2023-08-20T05:28:36;2.35;;;1.45;;
33357;SDS011;19717;42.614;23.418;2023-08-20T05:31:02;1.90;;;1.50;;
33357;SDS011;19717;42.614;23.418;2023-08-20T05:33:28;2.47;;;1.60;;
33357;SDS011;19717;42.614;23.418;2023-08-20T05:35:54;1.45;;;1.35;;
33357;SDS011;19717;42.614;23.418;2023-08-20T05:38:20;1.40;;;1.30;;
33357;SDS011;19717;42.614;23.418;2023-08-20T05:40:46;1.50;;;1.40;;
33357;SDS011;19717;42.614;23.418;2023-08-20T05:43:12;1.73;;;1.20;;
33357;SDS011;19717;42.614;23.418;2023-08-20T05:45:38;1.42;;;1.33;;
33357;SDS011;19717;42.614;23.418;2023-08-20T05:48:04;1.77;;;1.15;;
33357;SDS011;19717;42.614;23.418;2023-08-20T05:50:30;1.80;;;1.30;;
33357;SDS011;19717;42.614;23.418;2023-08-20T05:52:56;1.52;;;1.42;;
33357;SDS011;19717;42.614;23.418;2023-08-20T05:55:22;2.35;;;1.17;;
33357;SDS011;19717;42.614;23.418;2023-08-20T05:57:48;1.17;;;1.10;;
33357;SDS011;19717;42.614;23.418;2023-08-20T06:00:15;1.20;;;1.10;;
33357;SDS011;19717;42.614;23.418;2023-08-20T06:02:42;1.40;;;1.30;;
33357;SDS011;19717;42.614;23.418;2023-08-20T06:05:10;3.33;;;1.13;;
33357;SDS011;19717;42.614;23.418;2023-08-20T06:07:36;1.40;;;1.30;;
33357;SDS011;19717;42.614;23.418;2023-08-20T06:10:02;1.55;;;1.45;;
33357;SDS011;19717;42.614;23.418;2023-08-20T06:12:28;1.30;;;1.20;;
33357;SDS011;19717;42.614;23.418;2023-08-20T06:14:54;1.52;;;1.40;;
33357;SDS011;19717;42.614;23.418;2023-08-20T06:17:20;1.38;;;1.27;;
33357;SDS011;19717;42.614;23.418;2023-08-20T06:19:46;1.40;;;1.30;;
33357;SDS011;19717;42.614;23.418;2023-08-20T06:22:12;1.40;;;1.35;;
33357;SDS011;19717;42.614;23.418;2023-08-20T06:24:38;1.15;;;1.15;;
33357;SDS011;19717;42.614;23.418;2023-08-20T06:27:04;1.23;;;1.20;;
33357;SDS011;19717;42.614;23.418;2023-08-20T06:29:30;2.50;;;1.20;;
33357;SDS011;19717;42.614;23.418;2023-08-20T06:31:56;1.20;;;1.20;;
33357;SDS011;19717;42.614;23.418;2023-08-20T06:34:22;1.45;;;1.33;;
33357;SDS011;19717;42.614;23.418;2023-08-20T06:36:49;2.38;;;1.20;;
33357;SDS011;19717;42.614;23.418;2023-08-20T06:39:15;2.35;;;1.30;;
33357;SDS011;19717;42.614;23.418;2023-08-20T06:41:41;1.40;;;1.30;;
33357;SDS011;19717;42.614;23.418;2023-08-20T06:44:07;1.63;;;1.13;;
33357;SDS011;19717;42.614;23.418;2023-08-20T06:46:34;1.23;;;1.10;;
33357;SDS011;19717;42.614;23.418;2023-08-20T06:49:00;0.90;;;0.90;;
33357;SDS011;19717;42.614;23.418;2023-08-20T06:51:26;1.02;;;1.00;;
33357;SDS011;19717;42.614;23.418;2023-08-20T06:53:53;1.30;;;1.10;;
33357;SDS011;19717;42.614;23.418;2023-08-20T06:56:20;1.17;;;1.10;;
33357;SDS011;19717;42.614;23.418;2023-08-20T06:58:46;1.05;;;1.05;;
33357;SDS011;19717;42.614;23.418;2023-08-20T07:01:12;1.33;;;1.10;;
33357;SDS011;19717;42.614;23.418;2023-08-20T07:03:39;1.00;;;1.00;;
33357;SDS011;19717;42.614;23.418;2023-08-20T07:06:05;2.38;;;1.05;;
33357;SDS011;19717;42.614;23.418;2023-08-20T07:08:31;0.98;;;0.88;;
33357;SDS011;19717;42.614;23.418;2023-08-20T07:10:57;0.70;;;0.70;;
33357;SDS011;19717;42.614;23.418;2023-08-20T07:13:23;1.50;;;1.00;;
33357;SDS011;19717;42.614;23.418;2023-08-20T07:15:50;0.80;;;0.80;;
33357;SDS011;19717;42.614;23.418;2023-08-20T07:18:16;0.80;;;0.80;;
33357;SDS011;19717;42.614;23.418;2023-08-20T07:20:42;1.85;;;0.80;;
33357;SDS011;19717;42.614;23.418;2023-08-20T07:23:09;0.63;;;0.60;;
33357;SDS011;19717;42.614;23.418;2023-08-20T07:25:39;0.70;;;0.70;;
33357;SDS011;19717;42.614;23.418;2023-08-20T07:28:06;0.70;;;0.70;;
33357;SDS011;19717;42.614;23.418;2023-08-20T07:30:32;0.70;;;0.70;;
33357;SDS011;19717;42.614;23.418;2023-08-20T07:32:58;0.65;;;0.65;;
33357;SDS011;19717;42.614;23.418;2023-08-20T07:35:24;0.80;;;0.80;;
33357;SDS011;19717;42.614;23.418;2023-08-20T07:37:50;0.60;;;0.60;;
33357;SDS011;19717;42.614;23.418;2023-08-20T07:40:16;0.60;;;0.60;;
33357;SDS011;19717;42.614;23.418;2023-08-20T07:42:42;1.05;;;0.70;;
33357;SDS011;19717;42.614;23.418;2023-08-20T07:45:09;3.97;;;1.15;;
33357;SDS011;19717;42.614;23.418;2023-08-20T07:47:35;0.63;;;0.63;;
33357;SDS011;19717;42.614;23.418;2023-08-20T07:50:01;1.70;;;0.70;;
33357;SDS011;19717;42.614;23.418;2023-08-20T07:52:28;0.68;;;0.68;;
33357;SDS011;19717;42.614;23.418;2023-08-20T07:54:54;1.70;;;0.80;;
33357;SDS011;19717;42.614;23.418;2023-08-20T07:57:20;0.80;;;0.70;;
33357;SDS011;19717;42.614;23.418;2023-08-20T07:59:46;0.70;;;0.70;;
33357;SDS011;19717;42.614;23.418;2023-08-20T08:02:12;1.17;;;0.63;;
33357;SDS011;19717;42.614;23.418;2023-08-20T08:04:38;0.60;;;0.60;;
33357;SDS011;19717;42.614;23.418;2023-08-20T08:07:04;0.82;;;0.60;;
33357;SDS011;19717;42.614;23.418;2023-08-20T08:09:31;0.80;;;0.52;;
33357;SDS011;19717;42.614;23.418;2023-08-20T08:11:57;0.82;;;0.60;;
33357;SDS011;19717;42.614;23.418;2023-08-20T08:14:24;1.38;;;1.05;;
33357;SDS011;19717;42.614;23.418;2023-08-20T08:16:50;0.77;;;0.55;;
33357;SDS011;19717;42.614;23.418;2023-08-20T08:19:16;1.42;;;0.75;;
33357;SDS011;19717;42.614;23.418;2023-08-20T08:21:42;0.70;;;0.70;;
33357;SDS011;19717;42.614;23.418;2023-08-20T08:24:09;1.10;;;1.00;;
33357;SDS011;19717;42.614;23.418;2023-08-20T08:26:35;0.95;;;0.70;;
33357;SDS011;19717;42.614;23.418;2023-08-20T08:29:02;0.65;;;0.65;;
33357;SDS011;19717;42.614;23.418;2023-08-20T08:31:28;0.63;;;0.50;;
33357;SDS011;19717;42.614;23.418;2023-08-20T08:33:54;0.60;;;0.50;;
33357;SDS011;19717;42.614;23.418;2023-08-20T08:36:20;0.50;;;0.50;;
33357;SDS011;19717;42.614;23.418;2023-08-20T08:38:46;0.82;;;0.60;;
33357;SDS011;19717;42.614;23.418;2023-08-20T08:41:12;3.28;;;0.70;;
33357;SDS011;19717;42.614;23.418;2023-08-20T08:43:39;1.60;;;1.50;;
33357;SDS011;19717;42.614;23.418;2023-08-20T08:46:06;0.60;;;0.60;;
33357;SDS011;19717;42.614;23.418;2023-08-20T08:48:33;1.15;;;0.60;;
33357;SDS011;19717;42.614;23.418;2023-08-20T08:51:02;0.70;;;0.70;;
33357;SDS011;19717;42.614;23.418;2023-08-20T08:53:29;0.95;;;0.60;;
33357;SDS011;19717;42.614;23.418;2023-08-20T08:55:55;0.60;;;0.60;;
33357;SDS011;19717;42.614;23.418;2023-08-20T08:58:21;0.50;;;0.50;;
33357;SDS011;19717;42.614;23.418;2023-08-20T09:00:48;0.55;;;0.50;;
33357;SDS011;19717;42.614;23.418;2023-08-20T09:03:14;0.50;;;0.50;;
33357;SDS011;19717;42.614;23.418;2023-08-20T09:05:50;2.05;;;0.60;;
33357;SDS011;19717;42.614;23.418;2023-08-20T09:08:23;0.52;;;0.50;;
33357;SDS011;19717;42.614;23.418;2023-08-20T09:10:52;0.50;;;0.50;;
33357;SDS011;19717;42.614;23.418;2023-08-20T09:13:25;0.50;;;0.50;;
33357;SDS011;19717;42.614;23.418;2023-08-20T09:15:52;0.50;;;0.50;;
33357;SDS011;19717;42.614;23.418;2023-08-20T09:18:18;0.60;;;0.50;;
33357;SDS011;19717;42.614;23.418;2023-08-20T09:20:44;0.57;;;0.57;;
33357;SDS011;19717;42.614;23.418;2023-08-20T09:23:13;0.45;;;0.45;;
33357;SDS011;19717;42.614;23.418;2023-08-20T09:25:39;0.50;;;0.50;;
33357;SDS011;19717;42.614;23.418;2023-08-20T09:28:05;0.60;;;0.60;;
33357;SDS011;19717;42.614;23.418;2023-08-20T09:30:31;0.50;;;0.50;;
33357;SDS011;19717;42.614;23.418;2023-08-20T09:35:30;0.70;;;0.40;;
33357;SDS011;19717;42.614;23.418;2023-08-20T09:37:59;0.50;;;0.50;;
33357;SDS011;19717;42.614;23.418;2023-08-20T09:40:26;0.82;;;0.50;;
33357;SDS011;19717;42.614;23.418;2023-08-20T09:42:53;0.30;;;0.30;;
33357;SDS011;19717;42.614;23.418;2023-08-20T09:45:20;0.50;;;0.50;;
33357;SDS011;19717;42.614;23.418;2023-08-20T09:47:48;0.77;;;0.57;;
33357;SDS011;19717;42.614;23.418;2023-08-20T09:50:16;0.40;;;0.40;;
33357;SDS011;19717;42.614;23.418;2023-08-20T09:53:01;0.40;;;0.40;;
33357;SDS011;19717;42.614;23.418;2023-08-20T09:55:35;0.50;;;0.50;;
33357;SDS011;19717;42.614;23.418;2023-08-20T09:58:01;0.40;;;0.40;;
33357;SDS011;19717;42.614;23.418;2023-08-20T10:00:28;0.40;;;0.40;;
33357;SDS011;19717;42.614;23.418;2023-08-20T10:02:57;0.50;;;0.50;;
33357;SDS011;19717;42.614;23.418;2023-08-20T10:05:24;0.50;;;0.50;;
33357;SDS011;19717;42.614;23.418;2023-08-20T10:07:50;0.50;;;0.40;;
33357;SDS011;19717;42.614;23.418;2023-08-20T10:10:17;0.77;;;0.50;;
33357;SDS011;19717;42.614;23.418;2023-08-20T10:12:43;0.50;;;0.50;;
33357;SDS011;19717;42.614;23.418;2023-08-20T10:15:11;0.75;;;0.40;;
33357;SDS011;19717;42.614;23.418;2023-08-20T10:17:38;0.43;;;0.43;;
33357;SDS011;19717;42.614;23.418;2023-08-20T10:20:05;0.40;;;0.40;;
33357;SDS011;19717;42.614;23.418;2023-08-20T10:22:37;1.10;;;0.50;;
33357;SDS011;19717;42.614;23.418;2023-08-20T10:25:07;0.50;;;0.50;;
33357;SDS011;19717;42.614;23.418;2023-08-20T10:27:34;0.75;;;0.50;;
33357;SDS011;19717;42.614;23.418;2023-08-20T10:30:01;0.75;;;0.47;;
33357;SDS011;19717;42.614;23.418;2023-08-20T10:35:15;0.40;;;0.40;;
33357;SDS011;19717;42.614;23.418;2023-08-20T10:38:00;0.40;;;0.40;;
33357;SDS011;19717;42.614;23.418;2023-08-20T10:43:23;5.72;;;0.63;;
33357;SDS011;19717;42.614;23.418;2023-08-20T10:46:01;0.50;;;0.50;;
33357;SDS011;19717;42.614;23.418;2023-08-20T10:48:28;0.50;;;0.50;;
33357;SDS011;19717;42.614;23.418;2023-08-20T10:50:55;0.60;;;0.50;;
33357;SDS011;19717;42.614;23.418;2023-08-20T10:53:22;0.50;;;0.50;;
33357;SDS011;19717;42.614;23.418;2023-08-20T10:55:48;0.50;;;0.50;;
33357;SDS011;19717;42.614;23.418;2023-08-20T10:58:14;0.50;;;0.50;;
33357;SDS011;19717;42.614;23.418;2023-08-20T11:00:41;0.88;;;0.50;;
33357;SDS011;19717;42.614;23.418;2023-08-20T11:03:08;1.98;;;0.60;;
33357;SDS011;19717;42.614;23.418;2023-08-20T11:05:34;0.50;;;0.50;;
33357;SDS011;19717;42.614;23.418;2023-08-20T11:08:00;0.40;;;0.40;;
33357;SDS011;19717;42.614;23.418;2023-08-20T11:10:28;0.50;;;0.50;;
33357;SDS011;19717;42.614;23.418;2023-08-20T11:12:54;0.85;;;0.50;;
33357;SDS011;19717;42.614;23.418;2023-08-20T11:15:20;0.40;;;0.40;;
33357;SDS011;19717;42.614;23.418;2023-08-20T11:17:47;0.40;;;0.40;;
33357;SDS011;19717;42.614;23.418;2023-08-20T11:20:16;0.47;;;0.47;;
33357;SDS011;19717;42.614;23.418;2023-08-20T11:22:42;0.95;;;0.63;;
33357;SDS011;19717;42.614;23.418;2023-08-20T11:25:12;2.40;;;0.50;;
33357;SDS011;19717;42.614;23.418;2023-08-20T11:27:41;0.68;;;0.47;;
33357;SDS011;19717;42.614;23.418;2023-08-20T11:30:08;2.63;;;0.80;;
33357;SDS011;19717;42.614;23.418;2023-08-20T11:32:37;2.00;;;1.00;;
33357;SDS011;19717;42.614;23.418;2023-08-20T11:35:03;0.47;;;0.45;;
33357;SDS011;19717;42.614;23.418;2023-08-20T11:37:30;0.60;;;0.47;;
33357;SDS011;19717;42.614;23.418;2023-08-20T11:39:56;0.55;;;0.50;;
33357;SDS011;19717;42.614;23.418;2023-08-20T11:42:22;0.40;;;0.40;;
33357;SDS011;19717;42.614;23.418;2023-08-20T11:44:48;0.40;;;0.40;;
33357;SDS011;19717;42.614;23.418;2023-08-20T11:47:17;0.40;;;0.40;;
33357;SDS011;19717;42.614;23.418;2023-08-20T11:49:43;1.98;;;0.50;;
33357;SDS011;19717;42.614;23.418;2023-08-20T11:52:10;0.40;;;0.40;;
33357;SDS011;19717;42.614;23.418;2023-08-20T11:54:37;0.50;;;0.50;;
33357;SDS011;19717;42.614;23.418;2023-08-20T11:57:04;0.40;;;0.40;;
33357;SDS011;19717;42.614;23.418;2023-08-20T11:59:30;1.38;;;0.40;;
33357;SDS011;19717;42.614;23.418;2023-08-20T12:01:57;0.40;;;0.40;;
33357;SDS011;19717;42.614;23.418;2023-08-20T12:04:25;0.50;;;0.50;;
33357;SDS011;19717;42.614;23.418;2023-08-20T12:07:13;0.40;;;0.40;;
33357;SDS011;19717;42.614;23.418;2023-08-20T12:09:40;0.47;;;0.47;;
33357;SDS011;19717;42.614;23.418;2023-08-20T12:12:07;0.40;;;0.40;;
33357;SDS011;19717;42.614;23.418;2023-08-20T12:14:34;1.25;;;0.50;;
33357;SDS011;19717;42.614;23.418;2023-08-20T12:17:00;0.50;;;0.50;;
33357;SDS011;19717;42.614;23.418;2023-08-20T12:19:26;0.40;;;0.40;;
33357;SDS011;19717;42.614;23.418;2023-08-20T12:21:52;0.40;;;0.40;;
33357;SDS011;19717;42.614;23.418;2023-08-20T12:24:18;0.40;;;0.40;;
33357;SDS011;19717;42.614;23.418;2023-08-20T12:26:45;0.40;;;0.40;;
33357;SDS011;19717;42.614;23.418;2023-08-20T12:29:11;0.70;;;0.50;;
33357;SDS011;19717;42.614;23.418;2023-08-20T12:31:38;0.50;;;0.50;;
33357;SDS011;19717;42.614;23.418;2023-08-20T12:34:06;0.43;;;0.43;;
33357;SDS011;19717;42.614;23.418;2023-08-20T12:36:33;0.52;;;0.50;;
33357;SDS011;19717;42.614;23.418;2023-08-20T12:38:59;0.60;;;0.60;;
33357;SDS011;19717;42.614;23.418;2023-08-20T12:41:25;0.40;;;0.40;;
33357;SDS011;19717;42.614;23.418;2023-08-20T12:43:51;0.40;;;0.40;;
33357;SDS011;19717;42.614;23.418;2023-08-20T12:46:17;0.57;;;0.50;;
33357;SDS011;19717;42.614;23.418;2023-08-20T12:48:43;0.40;;;0.40;;
33357;SDS011;19717;42.614;23.418;2023-08-20T12:51:09;0.50;;;0.50;;
33357;SDS011;19717;42.614;23.418;2023-08-20T12:53:38;1.50;;;0.50;;
33357;SDS011;19717;42.614;23.418;2023-08-20T12:56:04;0.40;;;0.40;;
33357;SDS011;19717;42.614;23.418;2023-08-20T12:58:30;0.73;;;0.45;;
33357;SDS011;19717;42.614;23.418;2023-08-20T13:00:56;0.50;;;0.50;;
33357;SDS011;19717;42.614;23.418;2023-08-20T13:03:22;0.40;;;0.40;;
33357;SDS011;19717;42.614;23.418;2023-08-20T13:05:48;0.40;;;0.40;;
33357;SDS011;19717;42.614;23.418;2023-08-20T13:08:15;0.50;;;0.50;;
33357;SDS011;19717;42.614;23.418;2023-08-20T13:10:41;1.00;;;0.40;;
33357;SDS011;19717;42.614;23.418;2023-08-20T13:13:09;0.45;;;0.43;;
33357;SDS011;19717;42.614;23.418;2023-08-20T13:15:35;0.40;;;0.40;;
33357;SDS011;19717;42.614;23.418;2023-08-20T13:18:01;0.40;;;0.40;;
33357;SDS011;19717;42.614;23.418;2023-08-20T13:20:27;0.47;;;0.47;;
33357;SDS011;19717;42.614;23.418;2023-08-20T13:22:53;0.40;;;0.40;;
33357;SDS011;19717;42.614;23.418;2023-08-20T13:25:20;0.63;;;0.50;;
33357;SDS011;19717;42.614;23.418;2023-08-20T13:27:46;0.60;;;0.47;;
33357;SDS011;19717;42.614;23.418;2023-08-20T13:30:12;0.82;;;0.50;;
33357;SDS011;19717;42.614;23.418;2023-08-20T13:32:38;0.45;;;0.45;;
33357;SDS011;19717;42.614;23.418;2023-08-20T13:35:04;0.40;;;0.40;;
33357;SDS011;19717;42.614;23.418;2023-08-20T13:37:31;0.40;;;0.40;;
33357;SDS011;19717;42.614;23.418;2023-08-20T13:39:57;0.60;;;0.50;;
33357;SDS011;19717;42.614;23.418;2023-08-20T13:42:23;0.40;;;0.40;;
33357;SDS011;19717;42.614;23.418;2023-08-20T13:44:49;0.65;;;0.50;;
33357;SDS011;19717;42.614;23.418;2023-08-20T13:47:15;0.40;;;0.40;;
33357;SDS011;19717;42.614;23.418;2023-08-20T13:49:41;0.40;;;0.40;;
33357;SDS011;19717;42.614;23.418;2023-08-20T13:52:08;0.50;;;0.50;;
33357;SDS011;19717;42.614;23.418;2023-08-20T13:54:35;0.40;;;0.40;;
33357;SDS011;19717;42.614;23.418;2023-08-20T13:57:02;0.50;;;0.50;;
33357;SDS011;19717;42.614;23.418;2023-08-20T13:59:28;2.17;;;1.23;;
33357;SDS011;19717;42.614;23.418;2023-08-20T14:01:54;0.40;;;0.40;;
33357;SDS011;19717;42.614;23.418;2023-08-20T14:04:20;0.50;;;0.50;;
33357;SDS011;19717;42.614;23.418;2023-08-20T14:06:46;0.50;;;0.40;;
33357;SDS011;19717;42.614;23.418;2023-08-20T14:09:13;1.45;;;0.50;;
33357;SDS011;19717;42.614;23.418;2023-08-20T14:11:39;0.50;;;0.50;;
33357;SDS011;19717;42.614;23.418;2023-08-20T14:14:05;0.40;;;0.40;;
33357;SDS011;19717;42.614;23.418;2023-08-20T14:16:31;0.40;;;0.40;;
33357;SDS011;19717;42.614;23.418;2023-08-20T14:18:57;0.55;;;0.50;;
33357;SDS011;19717;42.614;23.418;2023-08-20T14:21:23;0.47;;;0.47;;
33357;SDS011;19717;42.614;23.418;2023-08-20T14:23:49;0.50;;;0.50;;
33357;SDS011;19717;42.614;23.418;2023-08-20T14:26:15;0.50;;;0.50;;
33357;SDS011;19717;42.614;23.418;2023-08-20T14:28:41;1.05;;;1.00;;
33357;SDS011;19717;42.614;23.418;2023-08-20T14:31:10;0.50;;;0.50;;
33357;SDS011;19717;42.614;23.418;2023-08-20T14:33:36;0.80;;;0.80;;
33357;SDS011;19717;42.614;23.418;2023-08-20T14:36:02;0.43;;;0.43;;
33357;SDS011;19717;42.614;23.418;2023-08-20T14:38:31;1.17;;;0.52;;
33357;SDS011;19717;42.614;23.418;2023-08-20T14:41:00;0.50;;;0.50;;
33357;SDS011;19717;42.614;23.418;2023-08-20T14:43:27;0.50;;;0.50;;
33357;SDS011;19717;42.614;23.418;2023-08-20T14:45:53;0.50;;;0.50;;